sensor_id;sensor_type;location;lat;lon;timestamp;pressure;altitude;pressure_sealevel;temperature;humidity
75942;BME280;64622;46.220;19.878;2023-08-08T00:01:33;100490.50;;;12.71;98.76
75942;BME280;64622;46.220;19.878;2023-08-08T00:04:01;100491.34;;;12.72;98.98
75942;BME280;64622;46.220;19.878;2023-08-08T00:06:27;100494.34;;;12.77;98.99
75942;BME280;64622;46.220;19.878;2023-08-08T00:08:54;100493.03;;;12.73;99.05
75942;BME280;64622;46.220;19.878;2023-08-08T00:11:20;100494.87;;;12.72;99.08
75942;BME280;64622;46.220;19.878;2023-08-08T00:13:47;100491.88;;;12.75;99.08
75942;BME280;64622;46.220;19.878;2023-08-08T00:16:13;100497.87;;;12.85;99.06
75942;BME280;64622;46.220;19.878;2023-08-08T00:18:40;100499.25;;;12.81;99.08
75942;BME280;64622;46.220;19.878;2023-08-08T00:21:07;100488.31;;;12.75;99.06
75942;BME280;64622;46.220;19.878;2023-08-08T00:23:33;100509.28;;;12.79;99.08
75942;BME280;64622;46.220;19.878;2023-08-08T00:26:00;100503.28;;;12.77;99.15
75942;BME280;64622;46.220;19.878;2023-08-08T00:28:26;100506.13;;;12.76;99.18
75942;BME280;64622;46.220;19.878;2023-08-08T00:30:53;100498.22;;;12.66;99.23
75942;BME280;64622;46.220;19.878;2023-08-08T00:33:20;100501.25;;;12.63;99.24
75942;BME280;64622;46.220;19.878;2023-08-08T00:35:46;100505.09;;;12.61;99.27
75942;BME280;64622;46.220;19.878;2023-08-08T00:38:12;100512.81;;;12.72;99.29
75942;BME280;64622;46.220;19.878;2023-08-08T00:40:41;100513.50;;;12.74;99.27
75942;BME280;64622;46.220;19.878;2023-08-08T00:43:07;100512.50;;;12.75;99.30
75942;BME280;64622;46.220;19.878;2023-08-08T00:45:34;100499.56;;;12.78;99.19
75942;BME280;64622;46.220;19.878;2023-08-08T00:48:01;100495.19;;;12.69;99.22
75942;BME280;64622;46.220;19.878;2023-08-08T00:50:27;100499.25;;;12.65;99.20
75942;BME280;64622;46.220;19.878;2023-08-08T00:52:54;100501.06;;;12.57;99.30
75942;BME280;64622;46.220;19.878;2023-08-08T00:55:21;100509.78;;;12.51;99.33
75942;BME280;64622;46.220;19.878;2023-08-08T00:57:48;100515.66;;;12.54;99.40
75942;BME280;64622;46.220;19.878;2023-08-08T01:00:14;100507.94;;;12.43;99.45
75942;BME280;64622;46.220;19.878;2023-08-08T01:02:41;100524.53;;;12.47;99.46
75942;BME280;64622;46.220;19.878;2023-08-08T01:05:08;100509.78;;;12.43;99.52
75942;BME280;64622;46.220;19.878;2023-08-08T01:10:25;100529.06;;;12.38;99.57
75942;BME280;64622;46.220;19.878;2023-08-08T01:12:55;100537.63;;;12.34;99.67
75942;BME280;64622;46.220;19.878;2023-08-08T01:15:26;100532.25;;;12.34;99.71
75942;BME280;64622;46.220;19.878;2023-08-08T01:17:54;100523.50;;;12.32;99.65
75942;BME280;64622;46.220;19.878;2023-08-08T01:20:21;100523.69;;;12.38;99.62
75942;BME280;64622;46.220;19.878;2023-08-08T01:23:05;100528.59;;;12.43;99.56
75942;BME280;64622;46.220;19.878;2023-08-08T01:25:35;100527.22;;;12.39;99.52
75942;BME280;64622;46.220;19.878;2023-08-08T01:28:03;100534.78;;;12.43;99.53
75942;BME280;64622;46.220;19.878;2023-08-08T01:30:31;100519.66;;;12.34;99.49
75942;BME280;64622;46.220;19.878;2023-08-08T01:33:00;100534.09;;;12.41;99.50
75942;BME280;64622;46.220;19.878;2023-08-08T01:35:31;100525.37;;;12.39;99.47
75942;BME280;64622;46.220;19.878;2023-08-08T01:38:25;100537.81;;;12.40;99.46
75942;BME280;64622;46.220;19.878;2023-08-08T01:40:50;100532.59;;;12.39;99.46
75942;BME280;64622;46.220;19.878;2023-08-08T01:43:17;100526.53;;;12.29;99.46
75942;BME280;64622;46.220;19.878;2023-08-08T01:45:44;100528.00;;;12.23;99.48
75942;BME280;64622;46.220;19.878;2023-08-08T01:48:11;100531.41;;;12.25;99.50
75942;BME280;64622;46.220;19.878;2023-08-08T01:50:38;100536.75;;;12.33;99.53
75942;BME280;64622;46.220;19.878;2023-08-08T01:53:05;100534.44;;;12.30;99.50
75942;BME280;64622;46.220;19.878;2023-08-08T01:55:31;100537.97;;;12.39;99.46
75942;BME280;64622;46.220;19.878;2023-08-08T01:57:58;100532.75;;;12.37;99.37
75942;BME280;64622;46.220;19.878;2023-08-08T02:00:25;100539.63;;;12.40;99.32
75942;BME280;64622;46.220;19.878;2023-08-08T02:02:53;100540.50;;;12.48;99.29
75942;BME280;64622;46.220;19.878;2023-08-08T02:05:19;100545.69;;;12.50;99.26
75942;BME280;64622;46.220;19.878;2023-08-08T02:07:46;100543.88;;;12.58;99.18
75942;BME280;64622;46.220;19.878;2023-08-08T02:10:13;100545.22;;;12.62;99.09
75942;BME280;64622;46.220;19.878;2023-08-08T02:12:39;100542.19;;;12.57;99.03
75942;BME280;64622;46.220;19.878;2023-08-08T02:15:06;100547.91;;;12.62;99.00
75942;BME280;64622;46.220;19.878;2023-08-08T02:17:33;100553.94;;;12.64;99.00
75942;BME280;64622;46.220;19.878;2023-08-08T02:20:00;100546.38;;;12.60;98.94
75942;BME280;64622;46.220;19.878;2023-08-08T02:22:26;100546.91;;;12.55;98.96
75942;BME280;64622;46.220;19.878;2023-08-08T02:24:53;100550.41;;;12.56;98.98
75942;BME280;64622;46.220;19.878;2023-08-08T02:27:20;100551.06;;;12.50;99.07
75942;BME280;64622;46.220;19.878;2023-08-08T02:29:47;100555.25;;;12.44;99.13
75942;BME280;64622;46.220;19.878;2023-08-08T02:32:14;100545.31;;;12.29;99.18
75942;BME280;64622;46.220;19.878;2023-08-08T02:34:41;100553.84;;;12.24;99.28
75942;BME280;64622;46.220;19.878;2023-08-08T02:37:08;100545.94;;;12.15;99.43
75942;BME280;64622;46.220;19.878;2023-08-08T02:39:35;100546.91;;;12.06;99.55
75942;BME280;64622;46.220;19.878;2023-08-08T02:42:02;100556.81;;;12.05;99.64
75942;BME280;64622;46.220;19.878;2023-08-08T02:44:28;100559.31;;;11.99;99.73
75942;BME280;64622;46.220;19.878;2023-08-08T02:46:55;100552.72;;;11.85;99.91
75942;BME280;64622;46.220;19.878;2023-08-08T02:49:22;100552.50;;;11.79;100.00
75942;BME280;64622;46.220;19.878;2023-08-08T02:51:48;100555.69;;;11.82;100.00
75942;BME280;64622;46.220;19.878;2023-08-08T02:54:15;100554.19;;;11.80;100.00
75942;BME280;64622;46.220;19.878;2023-08-08T02:56:42;100559.53;;;11.80;100.00
75942;BME280;64622;46.220;19.878;2023-08-08T02:59:09;100558.53;;;11.81;100.00
75942;BME280;64622;46.220;19.878;2023-08-08T03:01:36;100566.78;;;11.87;100.00
75942;BME280;64622;46.220;19.878;2023-08-08T03:04:06;100567.09;;;11.84;100.00
75942;BME280;64622;46.220;19.878;2023-08-08T03:06:33;100573.00;;;11.88;100.00
75942;BME280;64622;46.220;19.878;2023-08-08T03:08:59;100568.47;;;11.88;100.00
75942;BME280;64622;46.220;19.878;2023-08-08T03:11:26;100565.41;;;11.83;100.00
75942;BME280;64622;46.220;19.878;2023-08-08T03:13:53;100570.47;;;11.86;100.00
75942;BME280;64622;46.220;19.878;2023-08-08T03:16:19;100572.66;;;11.91;100.00
75942;BME280;64622;46.220;19.878;2023-08-08T03:18:46;100565.94;;;11.87;100.00
75942;BME280;64622;46.220;19.878;2023-08-08T03:21:13;100567.44;;;11.89;100.00
75942;BME280;64622;46.220;19.878;2023-08-08T03:23:40;100569.16;;;11.90;99.99
75942;BME280;64622;46.220;19.878;2023-08-08T03:26:07;100584.59;;;11.96;99.97
75942;BME280;64622;46.220;19.878;2023-08-08T03:28:35;100574.53;;;11.90;99.97
75942;BME280;64622;46.220;19.878;2023-08-08T03:31:01;100586.94;;;11.99;99.94
75942;BME280;64622;46.220;19.878;2023-08-08T03:33:30;100582.75;;;11.97;99.91
75942;BME280;64622;46.220;19.878;2023-08-08T03:35:58;100573.19;;;11.94;99.88
75942;BME280;64622;46.220;19.878;2023-08-08T03:38:24;100581.75;;;11.98;99.84
75942;BME280;64622;46.220;19.878;2023-08-08T03:40:51;100580.09;;;12.05;99.80
75942;BME280;64622;46.220;19.878;2023-08-08T03:43:17;100589.19;;;12.12;99.75
75942;BME280;64622;46.220;19.878;2023-08-08T03:45:45;100587.31;;;12.04;99.80
75942;BME280;64622;46.220;19.878;2023-08-08T03:48:11;100586.00;;;12.08;99.75
75942;BME280;64622;46.220;19.878;2023-08-08T03:50:39;100576.56;;;12.04;99.71
75942;BME280;64622;46.220;19.878;2023-08-08T03:53:07;100572.91;;;12.05;99.70
75942;BME280;64622;46.220;19.878;2023-08-08T03:55:33;100572.37;;;12.02;99.73
75942;BME280;64622;46.220;19.878;2023-08-08T03:58:00;100582.28;;;12.09;99.71
75942;BME280;64622;46.220;19.878;2023-08-08T04:00:27;100597.59;;;12.17;99.66
75942;BME280;64622;46.220;19.878;2023-08-08T04:02:53;100595.59;;;12.19;99.64
75942;BME280;64622;46.220;19.878;2023-08-08T04:05:20;100590.88;;;12.13;99.61
75942;BME280;64622;46.220;19.878;2023-08-08T04:07:47;100590.53;;;12.16;99.62
75942;BME280;64622;46.220;19.878;2023-08-08T04:10:13;100596.28;;;12.21;99.58
75942;BME280;64622;46.220;19.878;2023-08-08T04:12:41;100605.03;;;12.31;99.58
75942;BME280;64622;46.220;19.878;2023-08-08T04:15:07;100609.38;;;12.32;99.55
75942;BME280;64622;46.220;19.878;2023-08-08T04:17:35;100596.16;;;12.30;99.52
75942;BME280;64622;46.220;19.878;2023-08-08T04:20:02;100607.41;;;12.42;99.46
75942;BME280;64622;46.220;19.878;2023-08-08T04:22:29;100611.16;;;12.49;99.37
75942;BME280;64622;46.220;19.878;2023-08-08T04:24:56;100610.16;;;12.66;99.26
75942;BME280;64622;46.220;19.878;2023-08-08T04:27:22;100615.63;;;12.98;99.07
75942;BME280;64622;46.220;19.878;2023-08-08T04:29:49;100614.97;;;13.20;98.70
75942;BME280;64622;46.220;19.878;2023-08-08T04:32:15;100608.75;;;13.35;98.36
75942;BME280;64622;46.220;19.878;2023-08-08T04:34:42;100628.06;;;13.55;98.11
75942;BME280;64622;46.220;19.878;2023-08-08T04:37:09;100622.34;;;13.74;97.87
75942;BME280;64622;46.220;19.878;2023-08-08T04:39:35;100626.00;;;13.89;97.67
75942;BME280;64622;46.220;19.878;2023-08-08T04:42:02;100620.59;;;13.97;96.99
75942;BME280;64622;46.220;19.878;2023-08-08T04:44:29;100630.63;;;14.19;96.32
75942;BME280;64622;46.220;19.878;2023-08-08T04:46:55;100623.87;;;14.23;95.72
75942;BME280;64622;46.220;19.878;2023-08-08T04:49:22;100616.44;;;14.33;95.37
75942;BME280;64622;46.220;19.878;2023-08-08T04:51:49;100636.38;;;14.54;94.98
75942;BME280;64622;46.220;19.878;2023-08-08T04:54:15;100623.34;;;14.66;94.62
75942;BME280;64622;46.220;19.878;2023-08-08T04:56:42;100633.22;;;14.81;94.31
75942;BME280;64622;46.220;19.878;2023-08-08T04:59:08;100624.03;;;14.90;94.03
75942;BME280;64622;46.220;19.878;2023-08-08T05:01:35;100640.13;;;15.06;93.21
75942;BME280;64622;46.220;19.878;2023-08-08T05:04:01;100647.50;;;15.12;92.99
75942;BME280;64622;46.220;19.878;2023-08-08T05:06:28;100644.37;;;15.23;92.35
75942;BME280;64622;46.220;19.878;2023-08-08T05:08:54;100639.75;;;15.32;92.02
75942;BME280;64622;46.220;19.878;2023-08-08T05:11:23;100652.94;;;15.49;91.53
75942;BME280;64622;46.220;19.878;2023-08-08T05:13:50;100658.28;;;15.57;91.01
75942;BME280;64622;46.220;19.878;2023-08-08T05:16:17;100655.97;;;15.69;90.45
75942;BME280;64622;46.220;19.878;2023-08-08T05:18:45;100656.75;;;15.77;89.80
75942;BME280;64622;46.220;19.878;2023-08-08T05:21:11;100648.22;;;15.88;89.76
75942;BME280;64622;46.220;19.878;2023-08-08T05:23:38;100652.59;;;16.18;89.10
75942;BME280;64622;46.220;19.878;2023-08-08T05:26:05;100649.88;;;16.04;88.55
75942;BME280;64622;46.220;19.878;2023-08-08T05:28:31;100667.50;;;16.00;88.73
75942;BME280;64622;46.220;19.878;2023-08-08T05:30:58;100668.06;;;16.24;88.49
75942;BME280;64622;46.220;19.878;2023-08-08T05:33:25;100658.19;;;16.31;87.70
75942;BME280;64622;46.220;19.878;2023-08-08T05:35:52;100659.03;;;16.46;86.91
75942;BME280;64622;46.220;19.878;2023-08-08T05:38:18;100664.72;;;16.66;86.75
75942;BME280;64622;46.220;19.878;2023-08-08T05:40:45;100681.56;;;16.82;86.09
75942;BME280;64622;46.220;19.878;2023-08-08T05:43:12;100674.03;;;16.99;85.13
75942;BME280;64622;46.220;19.878;2023-08-08T05:45:43;100677.84;;;16.69;84.26
75942;BME280;64622;46.220;19.878;2023-08-08T05:48:10;100686.28;;;16.95;84.65
75942;BME280;64622;46.220;19.878;2023-08-08T05:50:39;100681.78;;;17.02;84.32
75942;BME280;64622;46.220;19.878;2023-08-08T05:53:05;100687.53;;;17.13;83.98
75942;BME280;64622;46.220;19.878;2023-08-08T05:55:33;100697.53;;;17.48;82.98
75942;BME280;64622;46.220;19.878;2023-08-08T05:57:59;100689.06;;;17.58;82.40
75942;BME280;64622;46.220;19.878;2023-08-08T06:00:26;100697.19;;;17.58;81.40
75942;BME280;64622;46.220;19.878;2023-08-08T06:02:52;100693.25;;;17.60;80.05
75942;BME280;64622;46.220;19.878;2023-08-08T06:05:22;100704.53;;;17.85;80.12
75942;BME280;64622;46.220;19.878;2023-08-08T06:07:49;100704.41;;;17.72;79.40
75942;BME280;64622;46.220;19.878;2023-08-08T06:10:16;100706.09;;;18.00;78.37
75942;BME280;64622;46.220;19.878;2023-08-08T06:12:43;100700.12;;;17.84;78.28
75942;BME280;64622;46.220;19.878;2023-08-08T06:15:10;100711.66;;;18.41;76.15
75942;BME280;64622;46.220;19.878;2023-08-08T06:17:36;100709.53;;;18.15;75.34
75942;BME280;64622;46.220;19.878;2023-08-08T06:20:04;100706.25;;;18.47;75.42
75942;BME280;64622;46.220;19.878;2023-08-08T06:22:32;100706.03;;;18.49;74.15
75942;BME280;64622;46.220;19.878;2023-08-08T06:24:59;100708.88;;;18.34;73.21
75942;BME280;64622;46.220;19.878;2023-08-08T06:27:25;100711.31;;;18.57;72.35
75942;BME280;64622;46.220;19.878;2023-08-08T06:29:52;100719.75;;;18.75;71.32
75942;BME280;64622;46.220;19.878;2023-08-08T06:32:19;100721.34;;;18.63;71.26
75942;BME280;64622;46.220;19.878;2023-08-08T06:34:45;100713.59;;;18.60;70.88
75942;BME280;64622;46.220;19.878;2023-08-08T06:37:12;100713.78;;;18.86;70.01
75942;BME280;64622;46.220;19.878;2023-08-08T06:39:39;100713.72;;;18.79;69.38
75942;BME280;64622;46.220;19.878;2023-08-08T06:42:06;100723.59;;;19.00;68.56
75942;BME280;64622;46.220;19.878;2023-08-08T06:44:44;100720.25;;;19.38;68.49
75942;BME280;64622;46.220;19.878;2023-08-08T06:47:11;100713.72;;;19.26;67.93
75942;BME280;64622;46.220;19.878;2023-08-08T06:49:38;100715.25;;;19.48;66.65
75942;BME280;64622;46.220;19.878;2023-08-08T06:52:05;100717.78;;;19.63;65.62
75942;BME280;64622;46.220;19.878;2023-08-08T06:54:32;100723.34;;;19.35;64.83
75942;BME280;64622;46.220;19.878;2023-08-08T06:56:59;100719.41;;;19.44;65.80
75942;BME280;64622;46.220;19.878;2023-08-08T06:59:26;100721.75;;;19.60;64.62
75942;BME280;64622;46.220;19.878;2023-08-08T07:01:53;100722.19;;;19.90;64.05
75942;BME280;64622;46.220;19.878;2023-08-08T07:04:20;100726.38;;;20.25;62.83
75942;BME280;64622;46.220;19.878;2023-08-08T07:06:48;100709.97;;;20.77;61.08
75942;BME280;64622;46.220;19.878;2023-08-08T07:09:15;100712.16;;;21.06;60.35
75942;BME280;64622;46.220;19.878;2023-08-08T07:11:42;100718.81;;;20.53;60.66
75942;BME280;64622;46.220;19.878;2023-08-08T07:14:08;100722.72;;;20.83;60.41
75942;BME280;64622;46.220;19.878;2023-08-08T07:16:35;100714.75;;;20.94;59.51
75942;BME280;64622;46.220;19.878;2023-08-08T07:19:02;100708.25;;;20.89;58.97
75942;BME280;64622;46.220;19.878;2023-08-08T07:21:28;100722.75;;;21.27;58.23
75942;BME280;64622;46.220;19.878;2023-08-08T07:23:56;100714.72;;;20.88;57.39
75942;BME280;64622;46.220;19.878;2023-08-08T07:26:23;100714.84;;;21.12;58.07
75942;BME280;64622;46.220;19.878;2023-08-08T07:28:50;100716.88;;;21.23;57.72
75942;BME280;64622;46.220;19.878;2023-08-08T07:31:16;100720.66;;;21.60;56.11
75942;BME280;64622;46.220;19.878;2023-08-08T07:33:43;100716.09;;;21.85;54.76
75942;BME280;64622;46.220;19.878;2023-08-08T07:36:10;100722.59;;;21.90;54.75
75942;BME280;64622;46.220;19.878;2023-08-08T07:38:36;100726.75;;;22.17;53.88
75942;BME280;64622;46.220;19.878;2023-08-08T07:41:04;100720.16;;;22.07;54.18
75942;BME280;64622;46.220;19.878;2023-08-08T07:43:31;100719.78;;;22.21;53.03
75942;BME280;64622;46.220;19.878;2023-08-08T07:45:58;100721.06;;;22.19;52.12
75942;BME280;64622;46.220;19.878;2023-08-08T07:48:25;100720.16;;;22.25;51.71
75942;BME280;64622;46.220;19.878;2023-08-08T07:50:51;100727.31;;;23.04;51.12
75942;BME280;64622;46.220;19.878;2023-08-08T07:53:18;100726.56;;;22.61;50.54
75942;BME280;64622;46.220;19.878;2023-08-08T07:55:44;100740.53;;;23.25;50.23
75942;BME280;64622;46.220;19.878;2023-08-08T07:58:11;100731.03;;;23.10;49.82
75942;BME280;64622;46.220;19.878;2023-08-08T08:00:38;100724.44;;;22.99;49.76
75942;BME280;64622;46.220;19.878;2023-08-08T08:03:04;100736.03;;;22.59;49.89
75942;BME280;64622;46.220;19.878;2023-08-08T08:05:31;100737.09;;;22.58;49.57
75942;BME280;64622;46.220;19.878;2023-08-08T08:07:58;100730.59;;;22.77;49.31
75942;BME280;64622;46.220;19.878;2023-08-08T08:10:25;100735.22;;;22.76;49.30
75942;BME280;64622;46.220;19.878;2023-08-08T08:12:52;100739.81;;;22.76;49.48
75942;BME280;64622;46.220;19.878;2023-08-08T08:15:25;100732.06;;;23.27;47.67
75942;BME280;64622;46.220;19.878;2023-08-08T08:17:52;100733.09;;;22.96;48.17
75942;BME280;64622;46.220;19.878;2023-08-08T08:20:18;100728.37;;;23.21;46.55
75942;BME280;64622;46.220;19.878;2023-08-08T08:22:46;100731.47;;;22.28;48.30
75942;BME280;64622;46.220;19.878;2023-08-08T08:25:14;100742.00;;;23.03;47.56
75942;BME280;64622;46.220;19.878;2023-08-08T08:27:40;100727.06;;;23.83;45.53
75942;BME280;64622;46.220;19.878;2023-08-08T08:30:08;100730.94;;;22.98;46.00
75942;BME280;64622;46.220;19.878;2023-08-08T08:32:41;100732.56;;;22.88;47.49
75942;BME280;64622;46.220;19.878;2023-08-08T08:35:09;100728.59;;;23.49;46.46
75942;BME280;64622;46.220;19.878;2023-08-08T08:37:35;100739.13;;;23.16;46.20
75942;BME280;64622;46.220;19.878;2023-08-08T08:40:02;100737.84;;;23.01;45.79
75942;BME280;64622;46.220;19.878;2023-08-08T08:42:32;100742.16;;;24.38;44.16
75942;BME280;64622;46.220;19.878;2023-08-08T08:45:01;100738.94;;;23.18;46.29
75942;BME280;64622;46.220;19.878;2023-08-08T08:47:29;100734.06;;;23.79;44.16
75942;BME280;64622;46.220;19.878;2023-08-08T08:49:58;100737.69;;;23.32;44.65
75942;BME280;64622;46.220;19.878;2023-08-08T08:52:24;100746.41;;;23.70;43.73
75942;BME280;64622;46.220;19.878;2023-08-08T08:54:51;100736.56;;;24.44;43.05
75942;BME280;64622;46.220;19.878;2023-08-08T08:57:22;100722.06;;;24.55;41.70
75942;BME280;64622;46.220;19.878;2023-08-08T08:59:52;100727.28;;;24.91;40.69
75942;BME280;64622;46.220;19.878;2023-08-08T09:02:19;100720.06;;;24.62;40.66
75942;BME280;64622;46.220;19.878;2023-08-08T09:04:45;100725.13;;;24.82;40.95
75942;BME280;64622;46.220;19.878;2023-08-08T09:07:14;100731.31;;;24.08;44.08
75942;BME280;64622;46.220;19.878;2023-08-08T09:09:43;100726.22;;;24.35;41.23
75942;BME280;64622;46.220;19.878;2023-08-08T09:12:10;100726.09;;;24.41;40.25
75942;BME280;64622;46.220;19.878;2023-08-08T09:14:40;100728.25;;;24.62;40.33
75942;BME280;64622;46.220;19.878;2023-08-08T09:17:14;100731.59;;;25.27;39.58
75942;BME280;64622;46.220;19.878;2023-08-08T09:19:45;100721.81;;;25.75;37.91
75942;BME280;64622;46.220;19.878;2023-08-08T09:22:13;100716.34;;;25.59;37.39
75942;BME280;64622;46.220;19.878;2023-08-08T09:24:41;100714.81;;;25.12;38.49
75942;BME280;64622;46.220;19.878;2023-08-08T09:27:08;100725.31;;;25.03;38.63
75942;BME280;64622;46.220;19.878;2023-08-08T09:29:36;100722.50;;;25.66;37.80
75942;BME280;64622;46.220;19.878;2023-08-08T09:32:06;100727.38;;;24.96;40.09
75942;BME280;64622;46.220;19.878;2023-08-08T09:34:32;100717.16;;;25.59;37.10
75942;BME280;64622;46.220;19.878;2023-08-08T09:36:59;100725.13;;;26.22;36.89
75942;BME280;64622;46.220;19.878;2023-08-08T09:39:28;100725.97;;;25.61;37.11
75942;BME280;64622;46.220;19.878;2023-08-08T09:41:55;100726.50;;;25.75;36.23
75942;BME280;64622;46.220;19.878;2023-08-08T09:44:28;100721.37;;;26.61;36.40
75942;BME280;64622;46.220;19.878;2023-08-08T09:46:56;100722.13;;;26.07;36.62
75942;BME280;64622;46.220;19.878;2023-08-08T09:49:23;100727.41;;;25.64;36.23
75942;BME280;64622;46.220;19.878;2023-08-08T09:51:50;100721.19;;;25.85;37.13
75942;BME280;64622;46.220;19.878;2023-08-08T09:54:17;100726.47;;;26.03;36.32
75942;BME280;64622;46.220;19.878;2023-08-08T09:56:44;100727.72;;;26.83;35.33
75942;BME280;64622;46.220;19.878;2023-08-08T09:59:11;100731.78;;;26.26;35.47
75942;BME280;64622;46.220;19.878;2023-08-08T10:01:40;100723.22;;;26.55;35.03
75942;BME280;64622;46.220;19.878;2023-08-08T10:04:08;100736.69;;;26.07;35.18
75942;BME280;64622;46.220;19.878;2023-08-08T10:06:36;100725.66;;;26.19;35.26
75942;BME280;64622;46.220;19.878;2023-08-08T10:09:03;100726.88;;;26.28;35.26
75942;BME280;64622;46.220;19.878;2023-08-08T10:11:31;100721.06;;;26.24;35.01
75942;BME280;64622;46.220;19.878;2023-08-08T10:14:01;100718.25;;;27.33;32.80
75942;BME280;64622;46.220;19.878;2023-08-08T10:16:32;100717.81;;;26.44;34.67
75942;BME280;64622;46.220;19.878;2023-08-08T10:19:02;100722.94;;;25.91;36.18
75942;BME280;64622;46.220;19.878;2023-08-08T10:21:34;100705.41;;;24.34;39.22
75942;BME280;64622;46.220;19.878;2023-08-08T10:24:05;100708.59;;;26.17;36.05
75942;BME280;64622;46.220;19.878;2023-08-08T10:26:33;100719.28;;;26.68;34.87
75942;BME280;64622;46.220;19.878;2023-08-08T10:29:01;100718.22;;;26.69;35.22
75942;BME280;64622;46.220;19.878;2023-08-08T10:31:33;100724.03;;;26.39;35.10
75942;BME280;64622;46.220;19.878;2023-08-08T10:34:03;100711.31;;;26.88;33.14
75942;BME280;64622;46.220;19.878;2023-08-08T10:36:50;100729.91;;;27.45;32.62
75942;BME280;64622;46.220;19.878;2023-08-08T10:39:20;100725.69;;;27.38;33.22
75942;BME280;64622;46.220;19.878;2023-08-08T10:41:49;100722.06;;;27.54;31.61
75942;BME280;64622;46.220;19.878;2023-08-08T10:44:25;100721.00;;;28.18;31.77
75942;BME280;64622;46.220;19.878;2023-08-08T10:46:53;100713.97;;;27.69;31.81
75942;BME280;64622;46.220;19.878;2023-08-08T10:49:21;100712.91;;;28.01;31.63
75942;BME280;64622;46.220;19.878;2023-08-08T10:51:50;100714.44;;;26.75;33.25
75942;BME280;64622;46.220;19.878;2023-08-08T10:54:25;100709.75;;;27.35;32.49
75942;BME280;64622;46.220;19.878;2023-08-08T10:56:58;100710.34;;;27.42;32.35
75942;BME280;64622;46.220;19.878;2023-08-08T10:59:27;100703.25;;;27.46;32.11
75942;BME280;64622;46.220;19.878;2023-08-08T11:01:56;100699.84;;;27.87;31.75
75942;BME280;64622;46.220;19.878;2023-08-08T11:04:23;100699.66;;;26.59;32.25
75942;BME280;64622;46.220;19.878;2023-08-08T11:06:53;100692.09;;;26.66;31.90
75942;BME280;64622;46.220;19.878;2023-08-08T11:09:20;100694.28;;;28.45;29.88
75942;BME280;64622;46.220;19.878;2023-08-08T11:11:46;100692.13;;;27.84;31.14
75942;BME280;64622;46.220;19.878;2023-08-08T11:14:18;100688.59;;;27.67;31.32
75942;BME280;64622;46.220;19.878;2023-08-08T11:16:47;100691.41;;;26.97;31.69
75942;BME280;64622;46.220;19.878;2023-08-08T11:19:14;100700.16;;;28.27;29.45
75942;BME280;64622;46.220;19.878;2023-08-08T11:21:49;100695.97;;;28.51;30.20
75942;BME280;64622;46.220;19.878;2023-08-08T11:24:16;100691.91;;;28.27;29.84
75942;BME280;64622;46.220;19.878;2023-08-08T11:26:44;100707.69;;;27.25;31.18
75942;BME280;64622;46.220;19.878;2023-08-08T11:29:13;100698.59;;;28.77;27.85
75942;BME280;64622;46.220;19.878;2023-08-08T11:31:40;100695.97;;;28.19;29.67
75942;BME280;64622;46.220;19.878;2023-08-08T11:34:07;100697.75;;;27.46;31.49
75942;BME280;64622;46.220;19.878;2023-08-08T11:36:36;100694.25;;;26.64;32.81
75942;BME280;64622;46.220;19.878;2023-08-08T11:39:04;100687.66;;;25.50;34.40
75942;BME280;64622;46.220;19.878;2023-08-08T11:41:35;100688.37;;;26.23;33.03
75942;BME280;64622;46.220;19.878;2023-08-08T11:44:03;100680.25;;;28.15;30.60
75942;BME280;64622;46.220;19.878;2023-08-08T11:46:30;100683.31;;;28.18;29.80
75942;BME280;64622;46.220;19.878;2023-08-08T11:49:06;100692.41;;;27.61;30.43
75942;BME280;64622;46.220;19.878;2023-08-08T11:51:34;100681.81;;;27.00;30.09
75942;BME280;64622;46.220;19.878;2023-08-08T11:54:02;100677.22;;;27.80;29.78
75942;BME280;64622;46.220;19.878;2023-08-08T11:56:33;100684.13;;;28.19;28.84
75942;BME280;64622;46.220;19.878;2023-08-08T11:59:00;100677.25;;;28.21;28.59
75942;BME280;64622;46.220;19.878;2023-08-08T12:01:30;100678.63;;;28.14;29.74
75942;BME280;64622;46.220;19.878;2023-08-08T12:03:58;100673.94;;;26.87;31.36
75942;BME280;64622;46.220;19.878;2023-08-08T12:06:30;100676.12;;;26.30;32.98
75942;BME280;64622;46.220;19.878;2023-08-08T12:08:57;100673.84;;;26.06;33.82
75942;BME280;64622;46.220;19.878;2023-08-08T12:11:24;100670.19;;;26.71;33.41
75942;BME280;64622;46.220;19.878;2023-08-08T12:13:50;100666.22;;;27.80;30.65
75942;BME280;64622;46.220;19.878;2023-08-08T12:16:16;100659.69;;;28.27;29.78
75942;BME280;64622;46.220;19.878;2023-08-08T12:18:43;100659.25;;;28.40;29.47
75942;BME280;64622;46.220;19.878;2023-08-08T12:21:10;100668.16;;;29.14;28.50
75942;BME280;64622;46.220;19.878;2023-08-08T12:23:37;100663.81;;;29.38;27.88
75942;BME280;64622;46.220;19.878;2023-08-08T12:26:05;100662.72;;;29.49;27.92
75942;BME280;64622;46.220;19.878;2023-08-08T12:28:33;100653.53;;;28.15;29.83
75942;BME280;64622;46.220;19.878;2023-08-08T12:31:00;100670.00;;;30.25;28.33
75942;BME280;64622;46.220;19.878;2023-08-08T12:33:27;100671.56;;;29.41;28.50
75942;BME280;64622;46.220;19.878;2023-08-08T12:35:54;100660.13;;;27.03;31.93
75942;BME280;64622;46.220;19.878;2023-08-08T12:38:20;100662.94;;;26.65;32.80
75942;BME280;64622;46.220;19.878;2023-08-08T12:40:47;100659.41;;;26.32;32.48
75942;BME280;64622;46.220;19.878;2023-08-08T12:43:14;100654.59;;;25.89;33.49
75942;BME280;64622;46.220;19.878;2023-08-08T12:45:46;100659.34;;;25.77;33.85